Coal Creek, Iowa
Current Conditions -  °F | °C
As of 12:15 PM on Saturday 25 Oct 2014 (Local Time) from KOOA Reporting Station
Clear Clear  
Wind Chill: 69°   Ceiling: Unl
Heat Index: 69°   Visibility: 10mi
Dew Point: 40°   Wind: 8mph
Humidity: 34%   Direction: 10°N
Pressure: 30.08"   Gusts: NA
Location:  41.3798°N, 92.3541°W
Report Text: KOOA 251715Z AUTO 01007KT 10SM CLR 20/04 A3008 RMK AO2 T02040042
Loading
Personal Weather Stations






























Interactive Weather Map
Tropical Storm Tracking
New forecast layout! Learn more

10-Day Weather Forecast

Advertisements
Track Severe Weather on mobile